< < Back
Terminal Aerodrome Forecast


Current Version              Previous Versions:   1  2  3  4  5  6  7  8  9  

Terminal Aerodrome Forecast

116
FTUS44 KBMX 271139
TAFMGM
TAF
KMGM 271139Z 2712/2812 VRB03KT P6SM SCT030
     FM271400 12007KT P6SM SCT035 SCT110
     FM272000 13008KT P6SM VCTS BKN035CB
      TEMPO 2722/2801 2SM TSRA SCT015 BKN025CB
     FM280300 00000KT P6SM SCT250=

Latest METAR

767
SAUS80 KWBC 271900 RRC
MTRMGM
METAR KMGM 271853Z 10005KT 10SM BKN033 31/21 A3014 RMK AO2 SLP202
T03060211


USA.gov is the U.S. government's official web portal to all federal, state and local government web resources and services.